createdAt,value
2018-09-12T04:28:27.590Z,79.80
2018-09-12T04:30:56.437Z,78.60
2018-09-12T04:33:25.023Z,78.40
2018-09-12T04:35:53.675Z,77.40
2018-09-12T04:38:22.293Z,76.90
2018-09-12T04:40:51.318Z,76.60
2018-09-12T04:43:20.237Z,76.70
2018-09-12T04:45:48.858Z,78.30
2018-09-12T04:48:17.445Z,79.20
2018-09-12T04:50:46.011Z,78.70
2018-09-12T04:53:14.642Z,78.40
2018-09-12T04:55:43.723Z,78.60
2018-09-12T04:58:12.278Z,79.50
2018-09-12T05:00:40.785Z,80.20
2018-09-12T05:03:09.339Z,80.10
2018-09-12T05:05:38.399Z,79.80
2018-09-12T05:08:06.947Z,79.80
2018-09-12T05:10:35.428Z,79.30
2018-09-12T05:13:03.982Z,78.30
2018-09-12T05:15:32.491Z,77.70
2018-09-12T05:18:01.021Z,77.20
2018-09-12T05:20:29.562Z,76.40
2018-09-12T05:22:58.077Z,76.10
2018-09-12T05:25:26.561Z,75.80
2018-09-12T05:27:55.153Z,75.90
2018-09-12T05:30:23.646Z,76.00
2018-09-12T05:32:52.196Z,75.90
2018-09-12T05:35:20.769Z,75.80
2018-09-12T05:37:49.301Z,76.10
2018-09-12T05:40:17.838Z,76.40
2018-09-12T05:42:46.379Z,77.00
2018-09-12T05:45:14.890Z,77.30
2018-09-12T05:47:43.430Z,76.50
2018-09-12T05:50:12.074Z,76.90
2018-09-12T05:52:40.565Z,76.50
2018-09-12T05:55:09.083Z,76.70
2018-09-12T05:57:37.610Z,77.10
2018-09-12T06:00:07.112Z,77.70
2018-09-12T06:02:35.631Z,76.80
2018-09-12T06:05:04.462Z,76.00
2018-09-12T06:07:33.033Z,75.60
2018-09-12T06:10:01.563Z,75.60
2018-09-12T06:12:30.097Z,75.20
2018-09-12T06:14:58.654Z,75.10
2018-09-12T06:17:27.158Z,74.70
2018-09-12T06:19:55.686Z,74.70
2018-09-12T06:22:24.203Z,74.40
2018-09-12T06:24:52.938Z,74.50
2018-09-12T06:27:21.472Z,75.90
2018-09-12T06:29:50.075Z,76.40
2018-09-12T06:32:18.659Z,77.50
2018-09-12T06:34:47.207Z,78.60
2018-09-12T06:37:15.751Z,77.80
2018-09-12T06:39:44.337Z,77.20
2018-09-12T06:42:12.891Z,76.90
2018-09-12T06:44:41.451Z,76.20
2018-09-12T06:47:10.002Z,75.40
2018-09-12T06:49:38.530Z,74.90
2018-09-12T06:52:07.090Z,74.00
2018-09-12T06:54:35.744Z,74.00
2018-09-12T06:57:04.288Z,74.50
2018-09-12T06:59:32.842Z,74.90
2018-09-12T07:02:01.341Z,74.40
2018-09-12T07:04:29.903Z,74.30
2018-09-12T07:06:58.491Z,75.20
2018-09-12T07:09:27.091Z,75.10
2018-09-12T07:11:56.638Z,74.40
2018-09-12T07:14:25.199Z,74.10
2018-09-12T07:16:53.709Z,73.70
2018-09-12T07:19:22.542Z,72.50
2018-09-12T07:21:51.617Z,71.90
2018-09-12T07:24:20.538Z,71.60
2018-09-12T07:26:49.495Z,72.10
2018-09-12T07:29:18.015Z,72.40
2018-09-12T07:31:46.618Z,72.00
2018-09-12T07:34:15.175Z,71.60
2018-09-12T07:36:43.689Z,70.60
2018-09-12T07:39:13.529Z,70.70
2018-09-12T07:41:42.253Z,69.70
2018-09-12T07:44:10.883Z,70.20
2018-09-12T07:46:39.498Z,70.20
2018-09-12T07:49:08.565Z,70.10
2018-09-12T07:51:37.046Z,69.40
2018-09-12T07:54:05.662Z,68.90
2018-09-12T07:56:34.183Z,68.80
2018-09-12T07:59:02.727Z,68.50
2018-09-12T08:01:31.284Z,67.80
2018-09-12T08:03:59.894Z,67.20
2018-09-12T08:06:28.391Z,66.20
2018-09-12T08:08:56.911Z,66.00
2018-09-12T08:11:25.413Z,64.90
2018-09-12T08:13:53.971Z,64.60
2018-09-12T08:16:22.474Z,63.80
2018-09-12T08:18:51.107Z,64.30
2018-09-12T08:21:19.616Z,64.00
2018-09-12T08:23:48.166Z,64.00
2018-09-12T08:26:17.653Z,64.00
2018-09-12T08:28:46.188Z,63.60
2018-09-12T08:31:15.118Z,62.70
2018-09-12T08:33:43.669Z,62.40
2018-09-12T08:36:12.202Z,61.90
2018-09-12T08:38:40.785Z,61.90
2018-09-12T08:41:09.372Z,61.10
2018-09-12T08:43:37.931Z,60.90
2018-09-12T08:46:06.560Z,61.00
2018-09-12T08:48:35.313Z,60.50
2018-09-12T08:51:03.923Z,60.20
2018-09-12T08:53:32.466Z,59.30
2018-09-12T08:56:01.040Z,58.90
2018-09-12T08:58:29.579Z,58.60
2018-09-12T09:00:58.264Z,58.90
2018-09-12T09:03:26.805Z,59.30
2018-09-12T09:05:55.450Z,58.70
2018-09-12T09:08:24.054Z,58.40
2018-09-12T09:10:53.692Z,58.60
2018-09-12T09:13:22.262Z,58.00
2018-09-12T09:15:51.146Z,58.10
2018-09-12T09:18:19.742Z,58.40
2018-09-12T09:20:48.296Z,57.90
2018-09-12T09:23:16.826Z,57.90
2018-09-12T09:25:45.414Z,57.60
2018-09-12T09:28:13.958Z,57.70
2018-09-12T09:30:42.826Z,57.50
2018-09-12T09:33:11.454Z,57.00
2018-09-12T09:35:40.144Z,56.70
2018-09-12T09:38:08.595Z,55.80
2018-09-12T09:40:39.783Z,55.80
2018-09-12T09:43:08.382Z,55.20
2018-09-12T09:45:37.017Z,54.70
2018-09-12T09:48:05.714Z,54.00
2018-09-12T09:50:34.167Z,53.60
2018-09-12T09:53:02.714Z,53.40
2018-09-12T09:55:31.295Z,52.60
2018-09-12T09:58:00.010Z,52.00
2018-09-12T10:00:33.974Z,50.40
2018-09-12T10:03:07.953Z,49.70
2018-09-12T10:05:41.963Z,49.80
2018-09-12T10:08:15.852Z,49.80
2018-09-12T10:10:44.441Z,49.70
2018-09-12T10:13:13.021Z,49.40
2018-09-12T10:15:41.587Z,49.60
2018-09-12T10:18:10.260Z,49.20
2018-09-12T10:20:38.830Z,48.70
2018-09-12T10:23:07.498Z,49.00
2018-09-12T10:25:36.133Z,49.40
2018-09-12T10:28:05.361Z,48.90
2018-09-12T10:30:33.991Z,48.90
2018-09-12T10:33:02.558Z,48.30
2018-09-12T10:35:31.866Z,48.40
2018-09-12T10:38:01.784Z,47.80
2018-09-12T10:40:30.502Z,48.30
2018-09-12T10:42:59.062Z,48.30
2018-09-12T10:45:29.527Z,47.60
2018-09-12T10:48:00.956Z,48.50
2018-09-12T10:50:31.075Z,48.20
2018-09-12T10:53:00.218Z,47.40
2018-09-12T10:55:28.843Z,47.70
2018-09-12T10:57:57.391Z,47.90
2018-09-12T11:00:26.105Z,47.60
2018-09-12T11:02:55.066Z,47.40
2018-09-12T11:05:23.627Z,47.50
2018-09-12T11:07:52.357Z,46.30
2018-09-12T11:10:21.024Z,46.20
2018-09-12T11:12:49.557Z,45.90
2018-09-12T11:15:18.125Z,46.00
2018-09-12T11:17:47.067Z,46.20
2018-09-12T11:20:15.630Z,46.00
2018-09-12T11:22:44.283Z,44.70
2018-09-12T11:25:12.867Z,43.40
2018-09-12T11:27:41.462Z,41.60
2018-09-12T11:30:10.163Z,41.10
2018-09-12T11:32:38.677Z,40.10
2018-09-12T11:35:07.402Z,37.80
2018-09-12T11:37:35.942Z,36.30
2018-09-12T11:40:04.635Z,35.10
2018-09-12T11:42:33.285Z,34.50
2018-09-12T11:45:01.818Z,34.20
2018-09-12T11:47:30.420Z,32.90
2018-09-12T11:50:01.294Z,33.20
2018-09-12T11:52:31.026Z,31.20
2018-09-12T11:54:59.567Z,30.90
2018-09-12T11:57:28.114Z,30.10
2018-09-12T11:59:56.787Z,30.70
2018-09-12T12:02:25.419Z,30.60
2018-09-12T12:04:53.932Z,30.90
2018-09-12T12:07:24.190Z,31.90
2018-09-12T12:09:54.239Z,32.40
2018-09-12T12:12:25.005Z,33.40
2018-09-12T12:14:58.474Z,34.50
2018-09-12T12:17:27.110Z,35.40
2018-09-12T12:19:57.320Z,36.00
2018-09-12T12:22:27.380Z,36.00
2018-09-12T12:24:55.977Z,37.00
2018-09-12T12:27:25.084Z,36.30
2018-09-12T12:29:54.128Z,36.50
2018-09-12T12:32:25.063Z,36.70
2018-09-12T12:34:55.854Z,36.90
2018-09-12T12:37:25.147Z,37.10
2018-09-12T12:39:57.241Z,37.90
2018-09-12T12:42:27.139Z,36.50
2018-09-12T12:44:56.997Z,36.80
2018-09-12T12:47:28.307Z,38.20
2018-09-12T12:49:57.283Z,38.20
2018-09-12T12:52:26.350Z,37.60
2018-09-12T12:54:54.927Z,36.00
2018-09-12T12:57:23.655Z,35.30
2018-09-12T12:59:52.575Z,35.70
2018-09-12T13:02:21.222Z,35.00
2018-09-12T13:04:49.738Z,34.50
2018-09-12T13:07:18.256Z,34.30
2018-09-12T13:09:47.035Z,34.40
2018-09-12T13:12:15.685Z,35.30
2018-09-12T13:14:44.344Z,33.40
2018-09-12T13:17:12.828Z,33.20
2018-09-12T13:19:41.591Z,31.50
2018-09-12T13:22:10.156Z,31.30
2018-09-12T13:24:39.105Z,31.20
2018-09-12T13:27:07.775Z,30.60
2018-09-12T13:29:36.314Z,30.80
2018-09-12T13:32:05.432Z,31.00
2018-09-12T13:34:34.147Z,29.60
2018-09-12T13:37:02.929Z,29.00
2018-09-12T13:39:31.519Z,29.20
2018-09-12T13:42:02.963Z,29.40
2018-09-12T13:44:31.649Z,28.80
2018-09-12T13:47:01.259Z,27.70
2018-09-12T13:49:29.808Z,25.80
2018-09-12T13:51:58.365Z,24.40
2018-09-12T13:54:28.367Z,23.70
2018-09-12T13:56:58.413Z,21.30
2018-09-12T13:59:27.489Z,20.20
2018-09-12T14:01:56.501Z,20.80
2018-09-12T14:04:25.778Z,21.20
2018-09-12T14:06:54.325Z,20.40
2018-09-12T14:09:23.573Z,21.20
2018-09-12T14:11:52.157Z,21.10
2018-09-12T14:14:20.722Z,19.80
2018-09-12T14:16:49.278Z,19.10
2018-09-12T14:19:17.953Z,19.00
2018-09-12T14:21:46.595Z,20.20
2018-09-12T14:24:17.861Z,19.40
2018-09-12T14:26:48.636Z,19.00
2018-09-12T14:29:24.518Z,17.70
2018-09-12T14:31:53.145Z,16.90
2018-09-12T14:34:21.684Z,16.80
2018-09-12T14:36:50.862Z,17.40
2018-09-12T14:39:19.388Z,16.80
2018-09-12T14:41:49.060Z,17.70
2018-09-12T14:44:18.139Z,17.60
2018-09-12T14:46:48.090Z,17.50
2018-09-12T14:49:17.345Z,17.60
2018-09-12T14:51:45.963Z,17.60
2018-09-12T14:54:16.074Z,19.40
2018-09-12T14:56:46.252Z,20.20
2018-09-12T14:59:14.774Z,21.40
2018-09-12T15:01:47.493Z,22.80
2018-09-12T15:04:16.362Z,23.60
2018-09-12T15:06:45.592Z,23.60
2018-09-12T15:09:14.654Z,24.10
2018-09-12T15:11:43.430Z,23.40
2018-09-12T15:14:11.988Z,21.90
2018-09-12T15:16:42.619Z,21.20
2018-09-12T15:19:11.798Z,20.90
2018-09-12T15:21:40.542Z,21.10
2018-09-12T15:24:09.125Z,20.80
2018-09-12T15:26:41.355Z,21.80
2018-09-12T15:29:10.183Z,22.80
2018-09-12T15:31:38.726Z,24.40
2018-09-12T15:34:08.375Z,25.50
2018-09-12T15:36:42.466Z,26.40
2018-09-12T15:39:13.103Z,26.90
2018-09-12T15:41:43.041Z,27.50
2018-09-12T15:44:14.539Z,27.70
2018-09-12T15:46:43.221Z,27.90
2018-09-12T15:49:12.514Z,28.00
2018-09-12T15:51:41.994Z,28.40
2018-09-12T15:54:13.320Z,28.30
2018-09-12T15:56:42.348Z,28.70
2018-09-12T15:59:11.020Z,28.80
2018-09-12T16:04:19.159Z,29.10
2018-09-12T16:06:47.881Z,29.10
2018-09-12T16:09:16.513Z,29.30
2018-09-12T16:11:45.067Z,29.40
2018-09-12T16:14:13.701Z,29.20
2018-09-12T16:16:42.218Z,29.50
2018-09-12T16:19:10.985Z,30.40
2018-09-12T16:21:39.552Z,30.20
2018-09-12T16:24:08.127Z,30.70
2018-09-12T16:26:36.759Z,30.40
2018-09-12T16:29:05.546Z,30.70
2018-09-12T16:45:21.612Z,30.90
2018-09-12T16:47:50.933Z,32.40
2018-09-12T16:53:23.220Z,32.30
2018-09-12T16:55:58.593Z,32.70
2018-09-12T16:58:33.531Z,33.10
2018-09-12T17:01:02.109Z,33.40
2018-09-12T17:03:51.816Z,33.60
2018-09-12T17:09:16.514Z,34.30
2018-09-12T17:11:45.707Z,34.70
2018-09-12T17:14:19.533Z,35.60
2018-09-12T17:20:23.501Z,35.60
2018-09-12T17:25:57.066Z,36.70
2018-09-12T17:31:38.314Z,38.20
2018-09-12T17:34:06.901Z,38.70
2018-09-12T17:36:37.024Z,39.40
2018-09-12T17:39:09.089Z,39.60
2018-09-12T17:41:37.756Z,40.10
2018-09-12T17:44:06.462Z,40.40
2018-09-12T17:46:35.023Z,40.90
2018-09-12T17:49:06.708Z,41.50
2018-09-12T17:51:37.764Z,42.20
2018-09-12T17:54:09.136Z,42.70
2018-09-12T17:56:43.524Z,43.10
2018-09-12T17:59:14.682Z,43.30
2018-09-12T18:01:46.775Z,43.50
2018-09-12T18:04:16.362Z,43.70
2018-09-12T18:06:45.119Z,44.00
2018-09-12T18:09:13.860Z,44.20
2018-09-12T18:11:42.483Z,44.10
2018-09-12T18:14:11.463Z,44.40
2018-09-12T18:16:40.218Z,44.40
2018-09-12T18:19:10.287Z,45.40
2018-09-12T18:21:41.413Z,46.30
2018-09-12T18:24:10.136Z,46.40
2018-09-12T18:26:40.050Z,46.60
2018-09-12T18:29:08.862Z,47.10
2018-09-12T18:31:37.438Z,47.30
2018-09-12T18:34:06.695Z,48.00
2018-09-12T18:36:35.365Z,48.10
2018-09-12T18:39:05.181Z,49.10
2018-09-12T18:41:33.760Z,49.00
2018-09-12T18:44:02.870Z,49.20
2018-09-12T18:46:31.426Z,49.40
2018-09-12T18:49:00.006Z,49.50
2018-09-12T18:51:28.725Z,49.30
2018-09-12T18:53:58.448Z,49.70
2018-09-12T18:56:29.000Z,49.80
2018-09-12T18:58:59.813Z,50.40
2018-09-12T19:01:28.455Z,72.40
2018-09-12T19:03:57.030Z,85.20
2018-09-12T19:06:26.386Z,92.10
2018-09-12T19:09:01.531Z,92.20
2018-09-12T19:11:33.946Z,94.80
2018-09-12T19:14:07.365Z,87.80
2018-09-12T19:16:37.782Z,85.30
2018-09-12T19:19:16.157Z,77.10
2018-09-12T19:21:47.096Z,77.30
2018-09-12T19:24:17.754Z,76.20
2018-09-12T19:29:23.964Z,66.80
2018-09-12T19:31:53.189Z,63.80
2018-09-12T19:34:22.011Z,61.10
2018-09-12T19:36:50.654Z,62.10
2018-09-12T19:39:19.318Z,60.20
2018-09-12T19:41:50.693Z,62.20
2018-09-12T19:44:19.636Z,60.90
2018-09-12T19:46:48.479Z,59.00
2018-09-12T19:49:18.018Z,60.20
2018-09-12T19:51:46.785Z,60.40
2018-09-12T19:54:16.818Z,59.80
2018-09-12T19:56:45.845Z,60.20
2018-09-12T19:59:14.516Z,61.50
2018-09-12T20:01:43.211Z,61.90
2018-09-12T20:04:11.820Z,62.00
2018-09-12T20:06:43.274Z,61.30
2018-09-12T20:09:12.390Z,63.00
2018-09-12T20:11:41.490Z,62.00
2018-09-12T20:14:12.351Z,63.20
2018-09-12T20:16:42.004Z,61.90
2018-09-12T20:19:10.735Z,62.70
2018-09-12T20:21:39.271Z,62.70
2018-09-12T20:24:15.866Z,63.50
2018-09-12T20:26:44.559Z,64.20
2018-09-12T20:29:13.509Z,64.40
2018-09-12T20:31:45.279Z,63.90
2018-09-12T20:34:13.983Z,62.70
2018-09-12T20:36:42.507Z,64.20
2018-09-12T20:39:12.206Z,63.50
2018-09-12T20:41:42.217Z,64.30
2018-09-12T20:44:10.846Z,64.40
2018-09-12T20:46:39.429Z,64.90
2018-09-12T20:49:08.121Z,64.60
2018-09-12T20:51:36.722Z,64.90
2018-09-12T20:54:05.608Z,64.00
2018-09-12T20:56:34.190Z,65.60
2018-09-12T20:59:02.823Z,64.90
2018-09-12T21:01:31.420Z,65.10
2018-09-12T21:03:59.982Z,65.00
2018-09-12T21:06:30.237Z,66.20
2018-09-12T21:08:59.038Z,65.30
2018-09-12T21:11:27.837Z,66.80
2018-09-12T21:13:57.185Z,66.20
2018-09-12T21:16:25.899Z,66.30
2018-09-12T21:18:58.824Z,67.20
2018-09-12T21:21:27.806Z,67.90
2018-09-12T21:23:56.408Z,68.00
2018-09-12T21:26:25.122Z,67.80
2018-09-12T21:28:53.743Z,66.70
2018-09-12T21:31:22.428Z,67.50
2018-09-12T21:33:51.008Z,66.10
2018-09-12T21:36:19.770Z,66.00
2018-09-12T21:38:48.346Z,66.60
2018-09-12T21:41:18.268Z,66.60
2018-09-12T21:43:46.826Z,67.20
2018-09-12T21:46:16.179Z,67.40
2018-09-12T21:48:44.817Z,67.70
2018-09-12T21:51:13.758Z,67.50
2018-09-12T21:53:42.644Z,67.10
2018-09-12T21:56:11.250Z,67.60
